sensor_id;sensor_type;location;lat;lon;timestamp;pressure;altitude;pressure_sealevel;temperature;humidity
13594;BME280;6449;47.666;9.160;2023-08-08T00:03:18;97307.13;;;13.50;100.00
13594;BME280;6449;47.666;9.160;2023-08-08T00:08:12;97311.09;;;13.45;100.00
13594;BME280;6449;47.666;9.160;2023-08-08T00:13:05;97310.22;;;13.55;100.00
13594;BME280;6449;47.666;9.160;2023-08-08T00:17:59;97319.03;;;13.33;100.00
13594;BME280;6449;47.666;9.160;2023-08-08T00:22:53;97308.69;;;13.42;100.00
13594;BME280;6449;47.666;9.160;2023-08-08T00:27:47;97310.53;;;13.30;100.00
13594;BME280;6449;47.666;9.160;2023-08-08T00:32:40;97299.03;;;13.31;100.00
13594;BME280;6449;47.666;9.160;2023-08-08T00:37:33;97291.56;;;13.58;100.00
13594;BME280;6449;47.666;9.160;2023-08-08T00:42:31;97287.53;;;13.21;100.00
13594;BME280;6449;47.666;9.160;2023-08-08T00:47:24;97286.09;;;13.39;100.00
13594;BME280;6449;47.666;9.160;2023-08-08T00:52:17;97284.09;;;13.09;100.00
13594;BME280;6449;47.666;9.160;2023-08-08T00:57:11;97274.03;;;13.14;100.00
13594;BME280;6449;47.666;9.160;2023-08-08T01:02:07;97270.34;;;13.17;100.00
13594;BME280;6449;47.666;9.160;2023-08-08T01:07:12;97269.31;;;12.85;100.00
13594;BME280;6449;47.666;9.160;2023-08-08T01:12:12;97273.00;;;13.05;100.00
13594;BME280;6449;47.666;9.160;2023-08-08T01:17:10;97274.69;;;12.84;100.00
13594;BME280;6449;47.666;9.160;2023-08-08T01:22:09;97272.38;;;13.13;100.00
13594;BME280;6449;47.666;9.160;2023-08-08T01:27:09;97270.06;;;13.20;100.00
13594;BME280;6449;47.666;9.160;2023-08-08T01:32:04;97270.06;;;13.20;100.00
13594;BME280;6449;47.666;9.160;2023-08-08T01:37:04;97269.13;;;13.09;100.00
13594;BME280;6449;47.666;9.160;2023-08-08T01:42:01;97261.84;;;13.13;100.00
13594;BME280;6449;47.666;9.160;2023-08-08T01:46:56;97274.22;;;12.90;100.00
13594;BME280;6449;47.666;9.160;2023-08-08T01:51:50;97285.94;;;12.64;100.00
13594;BME280;6449;47.666;9.160;2023-08-08T01:56:44;97282.22;;;12.55;100.00
13594;BME280;6449;47.666;9.160;2023-08-08T02:01:37;97287.97;;;12.71;100.00
13594;BME280;6449;47.666;9.160;2023-08-08T02:06:32;97274.69;;;12.62;100.00
13594;BME280;6449;47.666;9.160;2023-08-08T02:11:25;97280.31;;;12.68;100.00
13594;BME280;6449;47.666;9.160;2023-08-08T02:16:19;97267.97;;;12.91;100.00
13594;BME280;6449;47.666;9.160;2023-08-08T02:21:12;97266.28;;;13.01;100.00
13594;BME280;6449;47.666;9.160;2023-08-08T02:26:07;97265.94;;;12.72;100.00
13594;BME280;6449;47.666;9.160;2023-08-08T02:31:00;97266.44;;;12.66;100.00
13594;BME280;6449;47.666;9.160;2023-08-08T02:35:54;97268.09;;;12.56;100.00
13594;BME280;6449;47.666;9.160;2023-08-08T02:40:48;97271.00;;;12.42;100.00
13594;BME280;6449;47.666;9.160;2023-08-08T02:45:42;97274.88;;;12.25;100.00
13594;BME280;6449;47.666;9.160;2023-08-08T02:50:36;97272.25;;;12.25;100.00
13594;BME280;6449;47.666;9.160;2023-08-08T02:55:30;97261.75;;;12.25;100.00
13594;BME280;6449;47.666;9.160;2023-08-08T03:00:23;97264.50;;;12.23;100.00
13594;BME280;6449;47.666;9.160;2023-08-08T03:05:18;97268.31;;;12.19;100.00
13594;BME280;6449;47.666;9.160;2023-08-08T03:10:13;97264.38;;;12.14;100.00
13594;BME280;6449;47.666;9.160;2023-08-08T03:15:07;97273.06;;;12.14;100.00
13594;BME280;6449;47.666;9.160;2023-08-08T03:20:02;97271.69;;;12.21;100.00
13594;BME280;6449;47.666;9.160;2023-08-08T03:24:59;97268.22;;;12.21;100.00
13594;BME280;6449;47.666;9.160;2023-08-08T03:29:52;97278.25;;;12.16;100.00
13594;BME280;6449;47.666;9.160;2023-08-08T03:34:45;97274.47;;;11.85;100.00
13594;BME280;6449;47.666;9.160;2023-08-08T03:39:39;97273.06;;;12.03;100.00
13594;BME280;6449;47.666;9.160;2023-08-08T03:44:34;97266.50;;;12.09;100.00
13594;BME280;6449;47.666;9.160;2023-08-08T03:49:27;97265.06;;;11.69;100.00
13594;BME280;6449;47.666;9.160;2023-08-08T03:54:20;97264.00;;;11.72;100.00
13594;BME280;6449;47.666;9.160;2023-08-08T03:59:14;97265.88;;;11.83;100.00
13594;BME280;6449;47.666;9.160;2023-08-08T04:04:08;97266.34;;;11.64;100.00
13594;BME280;6449;47.666;9.160;2023-08-08T04:09:02;97276.19;;;11.73;100.00
13594;BME280;6449;47.666;9.160;2023-08-08T04:13:55;97279.78;;;11.72;100.00
13594;BME280;6449;47.666;9.160;2023-08-08T04:18:48;97285.41;;;11.54;100.00
13594;BME280;6449;47.666;9.160;2023-08-08T04:23:43;97292.72;;;11.38;100.00
13594;BME280;6449;47.666;9.160;2023-08-08T04:28:36;97295.53;;;11.72;100.00
13594;BME280;6449;47.666;9.160;2023-08-08T04:33:30;97293.56;;;11.63;100.00
13594;BME280;6449;47.666;9.160;2023-08-08T04:38:23;97292.44;;;11.78;100.00
13594;BME280;6449;47.666;9.160;2023-08-08T04:43:18;97291.06;;;11.85;100.00
13594;BME280;6449;47.666;9.160;2023-08-08T04:48:11;97302.09;;;12.01;100.00
13594;BME280;6449;47.666;9.160;2023-08-08T04:53:05;97305.50;;;12.15;100.00
13594;BME280;6449;47.666;9.160;2023-08-08T04:57:58;97309.53;;;12.19;100.00
13594;BME280;6449;47.666;9.160;2023-08-08T05:02:53;97308.16;;;12.37;100.00
13594;BME280;6449;47.666;9.160;2023-08-08T05:07:46;97304.34;;;12.41;100.00
13594;BME280;6449;47.666;9.160;2023-08-08T05:12:40;97300.41;;;12.58;100.00
13594;BME280;6449;47.666;9.160;2023-08-08T05:17:33;97295.84;;;12.60;100.00
13594;BME280;6449;47.666;9.160;2023-08-08T05:22:28;97299.94;;;12.64;100.00
13594;BME280;6449;47.666;9.160;2023-08-08T05:27:21;97293.09;;;12.73;100.00
13594;BME280;6449;47.666;9.160;2023-08-08T05:32:14;97301.25;;;12.58;100.00
13594;BME280;6449;47.666;9.160;2023-08-08T05:37:08;97302.31;;;12.78;100.00
13594;BME280;6449;47.666;9.160;2023-08-08T05:42:10;97300.06;;;12.74;100.00
13594;BME280;6449;47.666;9.160;2023-08-08T05:47:04;97300.16;;;12.83;100.00
13594;BME280;6449;47.666;9.160;2023-08-08T05:51:57;97298.38;;;12.95;100.00
13594;BME280;6449;47.666;9.160;2023-08-08T05:56:51;97298.09;;;12.98;100.00
13594;BME280;6449;47.666;9.160;2023-08-08T06:01:46;97296.06;;;13.13;100.00
13594;BME280;6449;47.666;9.160;2023-08-08T06:06:39;97292.38;;;13.27;100.00
13594;BME280;6449;47.666;9.160;2023-08-08T06:11:33;97292.91;;;13.42;100.00
13594;BME280;6449;47.666;9.160;2023-08-08T06:16:26;97289.75;;;13.59;100.00
13594;BME280;6449;47.666;9.160;2023-08-08T06:21:21;97284.22;;;13.62;100.00
13594;BME280;6449;47.666;9.160;2023-08-08T06:26:14;97283.34;;;13.41;100.00
13594;BME280;6449;47.666;9.160;2023-08-08T06:31:08;97279.50;;;13.45;100.00
13594;BME280;6449;47.666;9.160;2023-08-08T06:36:02;97282.88;;;13.68;100.00
13594;BME280;6449;47.666;9.160;2023-08-08T06:40:57;97284.66;;;13.99;100.00
13594;BME280;6449;47.666;9.160;2023-08-08T06:45:51;97289.22;;;14.18;100.00
13594;BME280;6449;47.666;9.160;2023-08-08T06:50:44;97278.41;;;14.21;100.00
13594;BME280;6449;47.666;9.160;2023-08-08T06:55:37;97281.84;;;14.33;100.00
13594;BME280;6449;47.666;9.160;2023-08-08T07:00:32;97274.19;;;14.51;100.00
13594;BME280;6449;47.666;9.160;2023-08-08T07:05:26;97264.75;;;14.58;100.00
13594;BME280;6449;47.666;9.160;2023-08-08T07:10:19;97277.22;;;14.77;100.00
13594;BME280;6449;47.666;9.160;2023-08-08T07:15:13;97269.63;;;14.93;100.00
13594;BME280;6449;47.666;9.160;2023-08-08T07:20:09;97264.75;;;14.88;100.00
13594;BME280;6449;47.666;9.160;2023-08-08T07:25:07;97262.84;;;15.10;100.00
13594;BME280;6449;47.666;9.160;2023-08-08T07:30:00;97266.88;;;15.04;100.00
13594;BME280;6449;47.666;9.160;2023-08-08T07:34:55;97275.13;;;15.20;100.00
13594;BME280;6449;47.666;9.160;2023-08-08T07:39:51;97259.19;;;15.51;100.00
13594;BME280;6449;47.666;9.160;2023-08-08T07:44:44;97246.13;;;15.69;100.00
13594;BME280;6449;47.666;9.160;2023-08-08T07:49:37;97248.34;;;15.93;100.00
13594;BME280;6449;47.666;9.160;2023-08-08T07:54:31;97251.09;;;16.01;100.00
13594;BME280;6449;47.666;9.160;2023-08-08T07:59:26;97261.69;;;16.11;100.00
13594;BME280;6449;47.666;9.160;2023-08-08T08:04:19;97251.63;;;16.24;100.00
13594;BME280;6449;47.666;9.160;2023-08-08T08:09:12;97242.66;;;16.44;100.00
13594;BME280;6449;47.666;9.160;2023-08-08T08:14:06;97237.38;;;16.82;100.00
13594;BME280;6449;47.666;9.160;2023-08-08T08:19:01;97232.53;;;17.05;100.00
13594;BME280;6449;47.666;9.160;2023-08-08T08:23:54;97233.09;;;17.44;100.00
13594;BME280;6449;47.666;9.160;2023-08-08T08:28:47;97227.34;;;17.48;100.00
13594;BME280;6449;47.666;9.160;2023-08-08T08:33:41;97230.53;;;17.70;100.00
13594;BME280;6449;47.666;9.160;2023-08-08T08:38:35;97224.16;;;17.98;100.00
13594;BME280;6449;47.666;9.160;2023-08-08T08:43:30;97225.16;;;18.23;100.00
13594;BME280;6449;47.666;9.160;2023-08-08T08:48:24;97217.59;;;18.37;100.00
13594;BME280;6449;47.666;9.160;2023-08-08T08:53:18;97219.63;;;18.43;100.00
13594;BME280;6449;47.666;9.160;2023-08-08T08:58:14;97216.81;;;18.70;100.00
13594;BME280;6449;47.666;9.160;2023-08-08T09:03:08;97221.50;;;18.76;100.00
13594;BME280;6449;47.666;9.160;2023-08-08T09:08:02;97215.94;;;19.04;100.00
13594;BME280;6449;47.666;9.160;2023-08-08T09:12:56;97228.22;;;19.05;100.00
13594;BME280;6449;47.666;9.160;2023-08-08T09:17:52;97215.03;;;19.29;100.00
13594;BME280;6449;47.666;9.160;2023-08-08T09:22:45;97213.72;;;19.58;100.00
13594;BME280;6449;47.666;9.160;2023-08-08T09:27:41;97200.13;;;19.77;100.00
13594;BME280;6449;47.666;9.160;2023-08-08T09:32:36;97206.13;;;19.71;100.00
13594;BME280;6449;47.666;9.160;2023-08-08T09:37:31;97202.13;;;20.00;100.00
13594;BME280;6449;47.666;9.160;2023-08-08T09:42:26;97198.75;;;20.30;100.00
13594;BME280;6449;47.666;9.160;2023-08-08T09:47:21;97189.63;;;20.25;100.00
13594;BME280;6449;47.666;9.160;2023-08-08T09:52:15;97176.81;;;20.20;100.00
13594;BME280;6449;47.666;9.160;2023-08-08T09:57:10;97183.47;;;20.24;100.00
13594;BME280;6449;47.666;9.160;2023-08-08T10:02:05;97184.94;;;20.35;100.00
13594;BME280;6449;47.666;9.160;2023-08-08T10:06:59;97188.25;;;20.29;100.00
13594;BME280;6449;47.666;9.160;2023-08-08T10:11:54;97184.13;;;20.02;100.00
13594;BME280;6449;47.666;9.160;2023-08-08T10:16:51;97186.16;;;19.83;100.00
13594;BME280;6449;47.666;9.160;2023-08-08T10:21:44;97177.47;;;19.49;100.00
13594;BME280;6449;47.666;9.160;2023-08-08T10:26:52;97182.13;;;19.47;100.00
13594;BME280;6449;47.666;9.160;2023-08-08T10:31:53;97174.34;;;19.70;100.00
13594;BME280;6449;47.666;9.160;2023-08-08T10:36:50;97163.50;;;20.12;100.00
13594;BME280;6449;47.666;9.160;2023-08-08T10:41:47;97160.75;;;20.45;100.00
13594;BME280;6449;47.666;9.160;2023-08-08T10:46:41;97154.66;;;20.75;97.11
13594;BME280;6449;47.666;9.160;2023-08-08T10:51:40;97146.66;;;20.75;92.39
13594;BME280;6449;47.666;9.160;2023-08-08T10:56:36;97150.56;;;20.96;95.14
13594;BME280;6449;47.666;9.160;2023-08-08T11:01:29;97130.78;;;21.13;79.53
13594;BME280;6449;47.666;9.160;2023-08-08T11:06:23;97142.06;;;21.23;89.23
13594;BME280;6449;47.666;9.160;2023-08-08T11:11:17;97128.19;;;21.74;89.04
13594;BME280;6449;47.666;9.160;2023-08-08T11:16:11;97124.56;;;21.89;88.72
13594;BME280;6449;47.666;9.160;2023-08-08T11:21:10;97141.09;;;21.85;93.60
13594;BME280;6449;47.666;9.160;2023-08-08T11:26:10;97117.81;;;21.93;84.74
13594;BME280;6449;47.666;9.160;2023-08-08T11:31:07;97116.41;;;21.83;85.97
13594;BME280;6449;47.666;9.160;2023-08-08T11:36:02;97110.34;;;21.74;86.17
13594;BME280;6449;47.666;9.160;2023-08-08T11:40:58;97111.91;;;21.83;88.34
13594;BME280;6449;47.666;9.160;2023-08-08T11:45:53;97097.97;;;22.26;83.15
13594;BME280;6449;47.666;9.160;2023-08-08T11:50:47;97089.47;;;22.37;75.99
13594;BME280;6449;47.666;9.160;2023-08-08T11:55:41;97085.78;;;21.93;79.19
13594;BME280;6449;47.666;9.160;2023-08-08T12:00:36;97094.41;;;21.66;80.48
13594;BME280;6449;47.666;9.160;2023-08-08T12:05:36;97076.09;;;21.78;74.07
13594;BME280;6449;47.666;9.160;2023-08-08T12:10:32;97078.47;;;21.58;78.18
13594;BME280;6449;47.666;9.160;2023-08-08T12:15:29;97077.97;;;21.92;77.02
13594;BME280;6449;47.666;9.160;2023-08-08T12:20:22;97077.97;;;21.92;76.18
13594;BME280;6449;47.666;9.160;2023-08-08T12:25:16;97085.75;;;21.64;78.05
13594;BME280;6449;47.666;9.160;2023-08-08T12:30:11;97073.34;;;21.86;79.65
13594;BME280;6449;47.666;9.160;2023-08-08T12:35:05;97076.38;;;21.83;77.12
13594;BME280;6449;47.666;9.160;2023-08-08T12:39:59;97078.69;;;21.86;78.23
13594;BME280;6449;47.666;9.160;2023-08-08T12:44:56;97065.97;;;21.73;73.95
13594;BME280;6449;47.666;9.160;2023-08-08T12:49:51;97073.09;;;21.95;77.81
13594;BME280;6449;47.666;9.160;2023-08-08T12:54:45;97076.47;;;22.04;75.29
13594;BME280;6449;47.666;9.160;2023-08-08T12:59:39;97065.63;;;21.91;69.23
13594;BME280;6449;47.666;9.160;2023-08-08T13:04:32;97063.03;;;21.97;70.21
13594;BME280;6449;47.666;9.160;2023-08-08T13:09:27;97084.78;;;21.94;77.14
13594;BME280;6449;47.666;9.160;2023-08-08T13:14:20;97065.09;;;21.95;76.42
13594;BME280;6449;47.666;9.160;2023-08-08T13:19:14;97054.41;;;22.10;78.49
13594;BME280;6449;47.666;9.160;2023-08-08T13:24:11;97060.75;;;22.09;78.15
13594;BME280;6449;47.666;9.160;2023-08-08T13:29:07;97042.88;;;22.10;72.01
13594;BME280;6449;47.666;9.160;2023-08-08T13:34:01;97037.19;;;22.13;66.51
13594;BME280;6449;47.666;9.160;2023-08-08T13:38:54;97047.28;;;21.88;75.63
13594;BME280;6449;47.666;9.160;2023-08-08T13:43:48;97052.19;;;21.99;79.70
13594;BME280;6449;47.666;9.160;2023-08-08T13:48:43;97057.81;;;21.89;77.39
13594;BME280;6449;47.666;9.160;2023-08-08T13:53:37;97054.19;;;21.67;76.30
13594;BME280;6449;47.666;9.160;2023-08-08T13:58:30;97051.97;;;21.71;75.68
13594;BME280;6449;47.666;9.160;2023-08-08T14:03:24;97050.13;;;21.71;78.13
13594;BME280;6449;47.666;9.160;2023-08-08T14:08:19;97051.63;;;21.74;82.28
13594;BME280;6449;47.666;9.160;2023-08-08T14:13:13;97034.69;;;21.82;77.48
13594;BME280;6449;47.666;9.160;2023-08-08T14:18:07;97044.63;;;21.88;80.85
13594;BME280;6449;47.666;9.160;2023-08-08T14:23:01;97029.63;;;21.72;71.30
13594;BME280;6449;47.666;9.160;2023-08-08T14:27:55;97054.53;;;21.50;82.02
13594;BME280;6449;47.666;9.160;2023-08-08T14:32:51;97044.19;;;21.32;80.22
13594;BME280;6449;47.666;9.160;2023-08-08T14:37:44;97054.69;;;21.25;85.16
13594;BME280;6449;47.666;9.160;2023-08-08T14:42:38;97052.59;;;21.21;86.14
13594;BME280;6449;47.666;9.160;2023-08-08T14:47:32;97040.13;;;21.36;82.47
13594;BME280;6449;47.666;9.160;2023-08-08T14:52:26;97039.97;;;21.37;82.01
13594;BME280;6449;47.666;9.160;2023-08-08T14:57:20;97038.72;;;21.48;80.75
13594;BME280;6449;47.666;9.160;2023-08-08T15:02:13;97033.19;;;21.50;76.11
13594;BME280;6449;47.666;9.160;2023-08-08T15:07:08;97037.50;;;21.51;80.57
13594;BME280;6449;47.666;9.160;2023-08-08T15:12:01;97033.41;;;21.63;78.01
13594;BME280;6449;47.666;9.160;2023-08-08T15:16:55;97036.13;;;21.55;79.69
13594;BME280;6449;47.666;9.160;2023-08-08T15:21:49;97032.38;;;21.64;74.34
13594;BME280;6449;47.666;9.160;2023-08-08T15:26:44;97034.50;;;21.68;73.98
13594;BME280;6449;47.666;9.160;2023-08-08T15:31:37;97023.81;;;21.83;75.44
13594;BME280;6449;47.666;9.160;2023-08-08T15:36:31;97035.34;;;21.69;80.08
13594;BME280;6449;47.666;9.160;2023-08-08T15:41:24;97028.69;;;21.65;78.68
13594;BME280;6449;47.666;9.160;2023-08-08T15:46:19;97021.34;;;21.52;72.56
13594;BME280;6449;47.666;9.160;2023-08-08T15:51:12;97009.38;;;21.63;67.10
13594;BME280;6449;47.666;9.160;2023-08-08T15:56:06;97016.88;;;21.44;74.42
13594;BME280;6449;47.666;9.160;2023-08-08T16:01:00;97024.59;;;21.39;77.83
13594;BME280;6449;47.666;9.160;2023-08-08T16:05:54;97014.69;;;21.48;76.65
13594;BME280;6449;47.666;9.160;2023-08-08T16:10:48;97016.53;;;21.48;77.23
13594;BME280;6449;47.666;9.160;2023-08-08T16:15:41;97025.81;;;21.37;82.66
13594;BME280;6449;47.666;9.160;2023-08-08T16:20:38;97023.88;;;21.31;79.30
13594;BME280;6449;47.666;9.160;2023-08-08T16:25:35;97030.53;;;21.27;83.47
13594;BME280;6449;47.666;9.160;2023-08-08T16:30:29;97021.72;;;21.26;80.93
13594;BME280;6449;47.666;9.160;2023-08-08T16:35:22;97037.13;;;21.16;81.77
13594;BME280;6449;47.666;9.160;2023-08-08T16:40:15;97033.19;;;21.27;79.98
13594;BME280;6449;47.666;9.160;2023-08-08T16:45:11;97025.19;;;21.27;77.17
13594;BME280;6449;47.666;9.160;2023-08-08T16:50:06;97016.09;;;21.21;75.68
13594;BME280;6449;47.666;9.160;2023-08-08T16:55:00;97018.88;;;21.05;78.17
13594;BME280;6449;47.666;9.160;2023-08-08T16:59:53;97040.44;;;20.95;84.75
13594;BME280;6449;47.666;9.160;2023-08-08T17:04:48;97045.28;;;20.91;81.52
13594;BME280;6449;47.666;9.160;2023-08-08T17:09:43;97037.56;;;21.05;79.71
13594;BME280;6449;47.666;9.160;2023-08-08T17:14:36;97041.31;;;20.87;81.32
13594;BME280;6449;47.666;9.160;2023-08-08T17:19:30;97035.56;;;20.76;80.51
13594;BME280;6449;47.666;9.160;2023-08-08T17:24:24;97039.03;;;20.61;85.28
13594;BME280;6449;47.666;9.160;2023-08-08T17:29:26;97051.28;;;20.31;88.75
13594;BME280;6449;47.666;9.160;2023-08-08T17:34:20;97058.97;;;20.26;91.00
13594;BME280;6449;47.666;9.160;2023-08-08T17:39:13;97061.19;;;20.06;94.88
13594;BME280;6449;47.666;9.160;2023-08-08T17:44:08;97059.88;;;20.02;95.21
13594;BME280;6449;47.666;9.160;2023-08-08T17:49:01;97067.38;;;19.99;95.56
13594;BME280;6449;47.666;9.160;2023-08-08T17:53:55;97073.63;;;19.67;99.13
13594;BME280;6449;47.666;9.160;2023-08-08T17:58:48;97071.41;;;19.54;100.00
13594;BME280;6449;47.666;9.160;2023-08-08T18:03:45;97074.28;;;19.44;100.00
13594;BME280;6449;47.666;9.160;2023-08-08T18:08:40;97074.94;;;19.30;100.00
13594;BME280;6449;47.666;9.160;2023-08-08T18:13:33;97075.09;;;19.20;100.00
13594;BME280;6449;47.666;9.160;2023-08-08T18:18:27;97075.94;;;19.21;100.00
13594;BME280;6449;47.666;9.160;2023-08-08T18:23:21;97071.63;;;19.20;100.00
13594;BME280;6449;47.666;9.160;2023-08-08T18:28:15;97074.94;;;19.05;100.00
13594;BME280;6449;47.666;9.160;2023-08-08T18:33:09;97078.91;;;18.93;100.00
13594;BME280;6449;47.666;9.160;2023-08-08T18:38:03;97081.06;;;18.81;100.00
13594;BME280;6449;47.666;9.160;2023-08-08T18:42:57;97089.50;;;18.85;100.00
13594;BME280;6449;47.666;9.160;2023-08-08T18:47:51;97090.03;;;18.89;100.00
13594;BME280;6449;47.666;9.160;2023-08-08T18:52:44;97086.72;;;18.87;100.00
13594;BME280;6449;47.666;9.160;2023-08-08T18:57:41;97100.66;;;18.80;100.00
13594;BME280;6449;47.666;9.160;2023-08-08T19:02:36;97103.63;;;18.77;100.00
13594;BME280;6449;47.666;9.160;2023-08-08T19:07:29;97107.28;;;18.76;100.00
13594;BME280;6449;47.666;9.160;2023-08-08T19:12:23;97106.41;;;18.68;100.00
13594;BME280;6449;47.666;9.160;2023-08-08T19:17:16;97102.19;;;18.57;100.00
13594;BME280;6449;47.666;9.160;2023-08-08T19:22:11;97107.69;;;18.55;100.00
13594;BME280;6449;47.666;9.160;2023-08-08T19:27:04;97107.63;;;18.47;100.00
13594;BME280;6449;47.666;9.160;2023-08-08T19:31:58;97102.97;;;18.41;100.00
13594;BME280;6449;47.666;9.160;2023-08-08T19:36:51;97101.63;;;18.37;100.00
13594;BME280;6449;47.666;9.160;2023-08-08T19:41:49;97101.25;;;18.32;100.00
13594;BME280;6449;47.666;9.160;2023-08-08T19:46:43;97093.47;;;18.30;100.00
13594;BME280;6449;47.666;9.160;2023-08-08T19:51:38;97095.28;;;18.30;100.00
13594;BME280;6449;47.666;9.160;2023-08-08T19:56:36;97100.44;;;18.31;100.00
13594;BME280;6449;47.666;9.160;2023-08-08T20:01:34;97102.38;;;18.21;100.00
13594;BME280;6449;47.666;9.160;2023-08-08T20:06:31;97098.03;;;18.12;100.00
13594;BME280;6449;47.666;9.160;2023-08-08T20:11:25;97095.16;;;18.05;100.00
13594;BME280;6449;47.666;9.160;2023-08-08T20:16:19;97092.94;;;17.67;100.00
13594;BME280;6449;47.666;9.160;2023-08-08T20:21:15;97091.50;;;17.28;100.00
13594;BME280;6449;47.666;9.160;2023-08-08T20:26:10;97087.25;;;17.36;100.00
13594;BME280;6449;47.666;9.160;2023-08-08T20:31:04;97084.81;;;17.42;100.00
13594;BME280;6449;47.666;9.160;2023-08-08T20:35:59;97090.44;;;17.21;100.00
13594;BME280;6449;47.666;9.160;2023-08-08T20:40:54;97095.06;;;17.19;100.00
13594;BME280;6449;47.666;9.160;2023-08-08T20:45:54;97107.84;;;17.24;100.00
13594;BME280;6449;47.666;9.160;2023-08-08T20:50:48;97106.34;;;17.03;100.00
13594;BME280;6449;47.666;9.160;2023-08-08T20:55:41;97106.34;;;17.03;100.00
13594;BME280;6449;47.666;9.160;2023-08-08T21:00:36;97107.41;;;17.11;100.00
13594;BME280;6449;47.666;9.160;2023-08-08T21:05:31;97099.53;;;17.19;100.00
13594;BME280;6449;47.666;9.160;2023-08-08T21:10:27;97103.16;;;17.18;100.00
13594;BME280;6449;47.666;9.160;2023-08-08T21:15:21;97096.97;;;17.27;100.00
13594;BME280;6449;47.666;9.160;2023-08-08T21:20:17;97101.44;;;17.26;100.00
13594;BME280;6449;47.666;9.160;2023-08-08T21:25:10;97106.03;;;17.24;100.00
13594;BME280;6449;47.666;9.160;2023-08-08T21:30:05;97098.25;;;17.05;100.00
13594;BME280;6449;47.666;9.160;2023-08-08T21:35:00;97094.84;;;16.95;100.00
13594;BME280;6449;47.666;9.160;2023-08-08T21:39:54;97100.00;;;16.96;100.00
13594;BME280;6449;47.666;9.160;2023-08-08T21:44:48;97090.84;;;16.91;100.00
13594;BME280;6449;47.666;9.160;2023-08-08T21:49:41;97094.03;;;16.94;100.00
13594;BME280;6449;47.666;9.160;2023-08-08T21:54:34;97091.44;;;16.85;100.00
13594;BME280;6449;47.666;9.160;2023-08-08T21:59:29;97087.88;;;16.76;100.00
13594;BME280;6449;47.666;9.160;2023-08-08T22:04:22;97089.84;;;16.74;100.00
13594;BME280;6449;47.666;9.160;2023-08-08T22:09:16;97096.38;;;16.70;100.00
13594;BME280;6449;47.666;9.160;2023-08-08T22:14:09;97089.69;;;16.75;100.00
13594;BME280;6449;47.666;9.160;2023-08-08T22:19:04;97082.28;;;16.79;100.00
13594;BME280;6449;47.666;9.160;2023-08-08T22:23:57;97082.06;;;16.72;100.00
13594;BME280;6449;47.666;9.160;2023-08-08T22:28:51;97078.31;;;16.65;100.00
13594;BME280;6449;47.666;9.160;2023-08-08T22:33:44;97078.13;;;16.49;100.00
13594;BME280;6449;47.666;9.160;2023-08-08T22:38:39;97083.03;;;16.44;100.00
13594;BME280;6449;47.666;9.160;2023-08-08T22:43:32;97079.78;;;16.50;100.00
13594;BME280;6449;47.666;9.160;2023-08-08T22:48:26;97075.97;;;16.62;100.00
13594;BME280;6449;47.666;9.160;2023-08-08T22:53:19;97082.22;;;16.61;100.00
13594;BME280;6449;47.666;9.160;2023-08-08T22:58:14;97072.16;;;16.74;100.00
13594;BME280;6449;47.666;9.160;2023-08-08T23:03:07;97074.78;;;16.74;100.00
13594;BME280;6449;47.666;9.160;2023-08-08T23:08:03;97065.31;;;16.72;100.00
13594;BME280;6449;47.666;9.160;2023-08-08T23:12:57;97065.31;;;16.72;100.00
13594;BME280;6449;47.666;9.160;2023-08-08T23:17:51;97067.13;;;16.71;100.00
13594;BME280;6449;47.666;9.160;2023-08-08T23:22:45;97067.41;;;16.68;100.00
13594;BME280;6449;47.666;9.160;2023-08-08T23:27:38;97067.25;;;16.70;100.00
13594;BME280;6449;47.666;9.160;2023-08-08T23:32:31;97053.59;;;16.74;100.00
13594;BME280;6449;47.666;9.160;2023-08-08T23:37:27;97046.91;;;16.70;100.00
13594;BME280;6449;47.666;9.160;2023-08-08T23:42:20;97034.94;;;16.66;100.00
13594;BME280;6449;47.666;9.160;2023-08-08T23:47:14;97041.53;;;16.44;100.00
13594;BME280;6449;47.666;9.160;2023-08-08T23:52:07;97045.22;;;16.34;100.00
13594;BME280;6449;47.666;9.160;2023-08-08T23:57:02;97042.34;;;16.45;100.00
